Historique des mesures à Cassis (13260), France
Quotidien Résumé Juin 10, 2021 Unités:  Métrique/US    US   Métrique
Quotidien Hebdomadaire Mensuel Annuel
  Maximum: Minimum: Moyenne:
Température: 69.1 °F /  20.6 °C 60.4 °F /  15.8 °C 63.7 °F /  17.6 °C
Point de rosée: 57.4 °F /  14.1 °C 47.1 °F /  8.4 °C 54 °F /  12.2 °C
Humidité: 87% 46% 72%
Vitesse du vent: 9.8mph /  15.8km/h - 4.1mph /  6.6km/h
Rafales: 57mph /  91.8km/h - -
Vent- - ESE
Pression: 29.8 in /  1010.1 hPa 29.7 in /  1006.3 hPa -
Précipitations: 0.86 in /  21.8 mm    
Historical Graphs
 
 
Mesures pour : Juin 10, 2021
Heure Temperature Point de rosée Pression Vent Vitesse du vent Rafales Humidité Pluie (par heure)
00:11 68.2 °F /  20.1 °C 47.1 °F /  8.4 °C 29.8in /  1008.7hPa East 3.1mph /  5km/h 17mph /  27.4km/h 47% 0in /  0.0mm
01:11 69.1 °F /  20.6 °C 47.3 °F /  8.5 °C 29.8in /  1008.4hPa ESE 2.9mph /  4.7km/h 11.9mph /  19.1km/h 46% 0in /  0.0mm
02:11 68.2 °F /  20.1 °C 48.4 °F /  9.1 °C 29.8in /  1007.4hPa NE 4.7mph /  7.6km/h 17.5mph /  28.1km/h 49% 0in /  0.0mm
03:10 68.2 °F /  20.1 °C 48.9 °F /  9.4 °C 29.8in /  1008.6hPa ESE 3.4mph /  5.4km/h 9.8mph /  15.8km/h 50% 0in /  0.0mm
04:10 67.1 °F /  19.5 °C 49.8 °F /  9.9 °C 29.8in /  1009.8hPa East 9.2mph /  14.8km/h 10.3mph /  16.6km/h 54% 0in /  0.0mm
05:11 66.4 °F /  19.1 °C 51.3 °F /  10.7 °C 29.8in /  1008.3hPa NE 5.6mph /  9km/h 9.2mph /  14.8km/h 58% 0in /  0.0mm
06:10 66 °F /  18.9 °C 52.2 °F /  11.2 °C 29.7in /  1007.2hPa ENE 8.7mph /  14km/h 8.7mph /  14km/h 61% 0in /  0.0mm
07:10 65.5 °F /  18.6 °C 52.2 °F /  11.2 °C 29.7in /  1006.3hPa North 2.7mph /  4.3km/h 7.4mph /  11.9km/h 62% 0in /  0.0mm
08:10 66.6 °F /  19.2 °C 52.7 °F /  11.5 °C 29.8in /  1008.6hPa ESE 4.7mph /  7.6km/h 13.4mph /  21.6km/h 61% 0in /  0.0mm
09:10 63.5 °F /  17.5 °C 54.3 °F /  12.4 °C 29.8in /  1009.3hPa East 9.8mph /  15.8km/h 11.6mph /  18.7km/h 72% 0in /  0.0mm
10:10 62.1 °F /  16.7 °C 55 °F /  12.8 °C 29.8in /  1009.3hPa ENE 4mph /  6.5km/h 8.9mph /  14.4km/h 78% 0.04in /  1.0mm
11:11 62.2 °F /  16.8 °C 55.9 °F /  13.3 °C 29.8in /  1009.3hPa WNW 6.5mph /  10.4km/h 6.5mph /  10.4km/h 80% 0.04in /  1.0mm
12:10 61.5 °F /  16.4 °C 56.3 °F /  13.5 °C 29.8in /  1009.3hPa ENE 1.8mph /  2.9km/h 4.7mph /  7.6km/h 83% 0.12in /  3.0mm
13:10 61.9 °F /  16.6 °C 56.7 °F /  13.7 °C 29.8in /  1009.3hPa ESE 3.6mph /  5.8km/h 57mph /  91.8km/h 83% 0.06in /  1.5mm
14:10 61.9 °F /  16.6 °C 57 °F /  13.9 °C 29.8in /  1009.5hPa Calm   57mph /  91.8km/h 84% 0.06in /  1.5mm
15:10 61.5 °F /  16.4 °C 57 °F /  13.9 °C 29.8in /  1010.1hPa West 2.7mph /  4.3km/h 4.7mph /  7.6km/h 85% 0.16in /  4.1mm
16:10 61.2 °F /  16.2 °C 57 °F /  13.9 °C 29.8in /  1009.8hPa WNW 0.7mph /  1.1km/h 0.7mph /  1.1km/h 86% 0.22in /  5.6mm
17:10 60.4 °F /  15.8 °C 56.7 °F /  13.7 °C 29.8in /  1008.8hPa East 6.3mph /  10.1km/h 9.2mph /  14.8km/h 87% 0.1in /  2.5mm
18:10 60.4 °F /  15.8 °C 56.7 °F /  13.7 °C 29.8in /  1007.5hPa ESE 4.7mph /  7.6km/h 14.1mph /  22.7km/h 87% 0.02in /  0.5mm
19:10 61.2 °F /  16.2 °C 57 °F /  13.9 °C 29.8in /  1007.5hPa ESE 3.4mph /  5.4km/h 7.4mph /  11.9km/h 86% 0in /  0.0mm
20:10 62.2 °F /  16.8 °C 57.4 °F /  14.1 °C 29.7in /  1007.0hPa ESE 1.6mph /  2.5km/h 6mph /  9.7km/h 84% 0in /  0.0mm
21:11 61.9 °F /  16.6 °C 56.3 °F /  13.5 °C 29.7in /  1007.3hPa Calm   7.8mph /  12.6km/h 82% 0in /  0.0mm
22:10 61.3 °F /  16.3 °C 55.8 °F /  13.2 °C 29.8in /  1008.0hPa SE 6.7mph /  10.8km/h 6.7mph /  10.8km/h 82% 0in /  0.0mm
23:10 61.3 °F /  16.3 °C 55.8 °F /  13.2 °C 29.8in /  1008.1hPa SE 1.1mph /  1.8km/h 12.3mph /  19.8km/h 82% 0in /  0.0mm
Observations météo à CASSIS
WU-History script by Weather Underground - 2 mb